sensor_id;sensor_type;location;lat;lon;timestamp;P1;durP1;ratioP1;P2;durP2;ratioP2
795;SDS011;381;48.770;9.188;2023-05-08T00:04:52;24.33;;;21.87;;
795;SDS011;381;48.770;9.188;2023-05-08T00:09:54;24.83;;;22.47;;
795;SDS011;381;48.770;9.188;2023-05-08T00:14:58;24.23;;;21.80;;
795;SDS011;381;48.770;9.188;2023-05-08T00:20:00;24.87;;;22.63;;
795;SDS011;381;48.770;9.188;2023-05-08T00:25:03;26.33;;;23.57;;
795;SDS011;381;48.770;9.188;2023-05-08T00:30:08;29.17;;;26.30;;
795;SDS011;381;48.770;9.188;2023-05-08T00:35:10;29.67;;;26.60;;
795;SDS011;381;48.770;9.188;2023-05-08T00:40:12;30.27;;;26.03;;
795;SDS011;381;48.770;9.188;2023-05-08T00:45:17;30.30;;;27.00;;
795;SDS011;381;48.770;9.188;2023-05-08T00:50:19;30.43;;;27.17;;
795;SDS011;381;48.770;9.188;2023-05-08T00:55:22;30.60;;;27.37;;
795;SDS011;381;48.770;9.188;2023-05-08T01:00:26;31.17;;;27.77;;
795;SDS011;381;48.770;9.188;2023-05-08T01:05:28;34.10;;;30.00;;
795;SDS011;381;48.770;9.188;2023-05-08T01:10:32;32.97;;;26.87;;
795;SDS011;381;48.770;9.188;2023-05-08T01:15:43;34.77;;;28.43;;
795;SDS011;381;48.770;9.188;2023-05-08T01:20:50;31.03;;;27.37;;
795;SDS011;381;48.770;9.188;2023-05-08T01:26:13;34.20;;;29.20;;
795;SDS011;381;48.770;9.188;2023-05-08T01:31:46;33.73;;;30.10;;
795;SDS011;381;48.770;9.188;2023-05-08T01:37:00;32.37;;;28.97;;
795;SDS011;381;48.770;9.188;2023-05-08T01:42:19;34.80;;;30.50;;
795;SDS011;381;48.770;9.188;2023-05-08T01:47:27;39.90;;;33.90;;
795;SDS011;381;48.770;9.188;2023-05-08T01:52:34;39.60;;;32.57;;
795;SDS011;381;48.770;9.188;2023-05-08T01:57:45;37.30;;;32.20;;
795;SDS011;381;48.770;9.188;2023-05-08T02:02:50;38.67;;;31.10;;
795;SDS011;381;48.770;9.188;2023-05-08T02:07:54;35.53;;;30.97;;
795;SDS011;381;48.770;9.188;2023-05-08T02:12:59;36.10;;;28.97;;
795;SDS011;381;48.770;9.188;2023-05-08T02:18:04;40.33;;;32.70;;
795;SDS011;381;48.770;9.188;2023-05-08T02:23:09;32.50;;;29.10;;
795;SDS011;381;48.770;9.188;2023-05-08T02:28:12;38.60;;;31.40;;
795;SDS011;381;48.770;9.188;2023-05-08T02:33:17;37.50;;;31.60;;
795;SDS011;381;48.770;9.188;2023-05-08T02:38:20;37.10;;;30.00;;
795;SDS011;381;48.770;9.188;2023-05-08T02:43:25;32.53;;;28.07;;
795;SDS011;381;48.770;9.188;2023-05-08T02:48:32;26.93;;;24.10;;
795;SDS011;381;48.770;9.188;2023-05-08T02:53:39;26.53;;;23.70;;
795;SDS011;381;48.770;9.188;2023-05-08T02:58:51;21.90;;;20.00;;
795;SDS011;381;48.770;9.188;2023-05-08T03:04:02;24.70;;;22.23;;
795;SDS011;381;48.770;9.188;2023-05-08T03:09:09;21.43;;;19.53;;
795;SDS011;381;48.770;9.188;2023-05-08T03:14:18;20.93;;;19.10;;
795;SDS011;381;48.770;9.188;2023-05-08T03:19:25;20.87;;;19.07;;
795;SDS011;381;48.770;9.188;2023-05-08T03:24:30;20.53;;;18.83;;
795;SDS011;381;48.770;9.188;2023-05-08T03:29:37;22.47;;;20.53;;
795;SDS011;381;48.770;9.188;2023-05-08T03:34:41;21.33;;;19.53;;
795;SDS011;381;48.770;9.188;2023-05-08T03:39:44;24.50;;;22.30;;
795;SDS011;381;48.770;9.188;2023-05-08T03:44:47;23.50;;;21.47;;
795;SDS011;381;48.770;9.188;2023-05-08T03:49:51;25.67;;;23.17;;
795;SDS011;381;48.770;9.188;2023-05-08T03:54:54;27.37;;;24.97;;
795;SDS011;381;48.770;9.188;2023-05-08T03:59:59;27.13;;;24.40;;
795;SDS011;381;48.770;9.188;2023-05-08T04:05:16;25.93;;;23.37;;
795;SDS011;381;48.770;9.188;2023-05-08T04:10:27;28.53;;;25.93;;
795;SDS011;381;48.770;9.188;2023-05-08T04:15:33;26.17;;;23.80;;
795;SDS011;381;48.770;9.188;2023-05-08T04:20:40;24.93;;;22.90;;
795;SDS011;381;48.770;9.188;2023-05-08T04:25:48;25.20;;;22.90;;
795;SDS011;381;48.770;9.188;2023-05-08T04:30:53;26.17;;;23.97;;
795;SDS011;381;48.770;9.188;2023-05-08T04:36:01;26.10;;;23.40;;
795;SDS011;381;48.770;9.188;2023-05-08T04:41:05;25.53;;;23.23;;
795;SDS011;381;48.770;9.188;2023-05-08T04:46:07;25.67;;;23.27;;
795;SDS011;381;48.770;9.188;2023-05-08T04:51:11;25.00;;;22.80;;
795;SDS011;381;48.770;9.188;2023-05-08T04:56:13;24.57;;;22.37;;
795;SDS011;381;48.770;9.188;2023-05-08T05:01:15;25.07;;;22.87;;
795;SDS011;381;48.770;9.188;2023-05-08T05:06:19;25.17;;;22.60;;
795;SDS011;381;48.770;9.188;2023-05-08T05:11:21;25.47;;;23.10;;
795;SDS011;381;48.770;9.188;2023-05-08T05:16:23;24.43;;;22.23;;
795;SDS011;381;48.770;9.188;2023-05-08T05:21:27;26.20;;;23.97;;
795;SDS011;381;48.770;9.188;2023-05-08T05:26:30;26.63;;;24.33;;
795;SDS011;381;48.770;9.188;2023-05-08T05:31:32;26.07;;;23.77;;
795;SDS011;381;48.770;9.188;2023-05-08T05:36:36;26.77;;;24.37;;
795;SDS011;381;48.770;9.188;2023-05-08T05:41:39;26.20;;;23.60;;
795;SDS011;381;48.770;9.188;2023-05-08T05:46:43;26.20;;;23.80;;
795;SDS011;381;48.770;9.188;2023-05-08T05:51:47;26.37;;;23.60;;
795;SDS011;381;48.770;9.188;2023-05-08T05:56:50;25.60;;;23.20;;
795;SDS011;381;48.770;9.188;2023-05-08T06:01:52;25.73;;;23.37;;
795;SDS011;381;48.770;9.188;2023-05-08T06:06:56;26.67;;;24.37;;
795;SDS011;381;48.770;9.188;2023-05-08T06:11:58;27.07;;;24.47;;
795;SDS011;381;48.770;9.188;2023-05-08T06:17:01;26.60;;;24.10;;
795;SDS011;381;48.770;9.188;2023-05-08T06:22:06;23.70;;;21.50;;
795;SDS011;381;48.770;9.188;2023-05-08T06:27:08;24.00;;;21.90;;
795;SDS011;381;48.770;9.188;2023-05-08T06:32:10;23.40;;;21.40;;
795;SDS011;381;48.770;9.188;2023-05-08T06:37:13;22.90;;;20.70;;
795;SDS011;381;48.770;9.188;2023-05-08T06:42:16;23.33;;;21.40;;
795;SDS011;381;48.770;9.188;2023-05-08T06:47:19;23.40;;;21.40;;
795;SDS011;381;48.770;9.188;2023-05-08T06:52:23;21.97;;;19.90;;
795;SDS011;381;48.770;9.188;2023-05-08T06:57:25;22.80;;;20.80;;
795;SDS011;381;48.770;9.188;2023-05-08T07:02:29;21.93;;;19.90;;
795;SDS011;381;48.770;9.188;2023-05-08T07:07:33;21.17;;;19.07;;
795;SDS011;381;48.770;9.188;2023-05-08T07:12:35;22.70;;;20.50;;
795;SDS011;381;48.770;9.188;2023-05-08T07:17:37;22.33;;;20.53;;
795;SDS011;381;48.770;9.188;2023-05-08T07:22:40;22.33;;;20.33;;
795;SDS011;381;48.770;9.188;2023-05-08T07:27:42;22.63;;;20.63;;
795;SDS011;381;48.770;9.188;2023-05-08T07:32:44;21.40;;;19.53;;
795;SDS011;381;48.770;9.188;2023-05-08T07:37:48;21.93;;;19.90;;
795;SDS011;381;48.770;9.188;2023-05-08T07:42:50;23.93;;;21.73;;
795;SDS011;381;48.770;9.188;2023-05-08T07:47:52;22.70;;;20.50;;
795;SDS011;381;48.770;9.188;2023-05-08T07:52:58;20.33;;;18.57;;
795;SDS011;381;48.770;9.188;2023-05-08T07:58:00;17.87;;;16.47;;
795;SDS011;381;48.770;9.188;2023-05-08T08:03:02;13.13;;;11.97;;
795;SDS011;381;48.770;9.188;2023-05-08T08:08:05;10.97;;;10.13;;
795;SDS011;381;48.770;9.188;2023-05-08T08:13:07;11.53;;;10.73;;
795;SDS011;381;48.770;9.188;2023-05-08T08:18:10;10.57;;;9.73;;
795;SDS011;381;48.770;9.188;2023-05-08T08:23:13;10.80;;;10.00;;
795;SDS011;381;48.770;9.188;2023-05-08T08:28:15;12.07;;;10.97;;
795;SDS011;381;48.770;9.188;2023-05-08T08:33:17;12.77;;;11.73;;
795;SDS011;381;48.770;9.188;2023-05-08T08:38:21;14.40;;;13.30;;
795;SDS011;381;48.770;9.188;2023-05-08T08:43:23;14.53;;;13.10;;
795;SDS011;381;48.770;9.188;2023-05-08T08:48:28;14.40;;;13.20;;
795;SDS011;381;48.770;9.188;2023-05-08T08:53:33;13.23;;;12.13;;
795;SDS011;381;48.770;9.188;2023-05-08T08:58:39;14.40;;;13.10;;
795;SDS011;381;48.770;9.188;2023-05-08T09:03:49;13.93;;;12.70;;
795;SDS011;381;48.770;9.188;2023-05-08T09:08:54;14.43;;;13.17;;
795;SDS011;381;48.770;9.188;2023-05-08T09:13:57;13.80;;;12.50;;
795;SDS011;381;48.770;9.188;2023-05-08T09:19:00;16.37;;;14.77;;
795;SDS011;381;48.770;9.188;2023-05-08T09:24:05;15.73;;;14.47;;
795;SDS011;381;48.770;9.188;2023-05-08T09:29:08;18.33;;;16.73;;
795;SDS011;381;48.770;9.188;2023-05-08T09:34:21;18.43;;;16.93;;
795;SDS011;381;48.770;9.188;2023-05-08T09:39:27;19.93;;;17.93;;
795;SDS011;381;48.770;9.188;2023-05-08T09:44:39;18.20;;;16.47;;
795;SDS011;381;48.770;9.188;2023-05-08T09:49:55;19.30;;;17.50;;
795;SDS011;381;48.770;9.188;2023-05-08T09:54:59;20.90;;;19.03;;
795;SDS011;381;48.770;9.188;2023-05-08T10:00:03;18.83;;;16.93;;
795;SDS011;381;48.770;9.188;2023-05-08T10:05:21;19.57;;;17.77;;
795;SDS011;381;48.770;9.188;2023-05-08T10:10:26;17.23;;;15.57;;
795;SDS011;381;48.770;9.188;2023-05-08T10:15:30;16.23;;;14.87;;
795;SDS011;381;48.770;9.188;2023-05-08T10:20:34;13.70;;;12.40;;
795;SDS011;381;48.770;9.188;2023-05-08T10:25:40;12.67;;;11.47;;
795;SDS011;381;48.770;9.188;2023-05-08T10:30:46;14.07;;;12.70;;
795;SDS011;381;48.770;9.188;2023-05-08T10:35:49;12.80;;;11.70;;
795;SDS011;381;48.770;9.188;2023-05-08T10:40:53;12.30;;;11.30;;
795;SDS011;381;48.770;9.188;2023-05-08T10:45:57;12.30;;;11.10;;
795;SDS011;381;48.770;9.188;2023-05-08T10:51:22;12.00;;;11.03;;
795;SDS011;381;48.770;9.188;2023-05-08T10:56:36;10.93;;;10.03;;
795;SDS011;381;48.770;9.188;2023-05-08T11:01:38;7.77;;;7.17;;
795;SDS011;381;48.770;9.188;2023-05-08T11:06:44;9.30;;;8.60;;
795;SDS011;381;48.770;9.188;2023-05-08T11:11:51;8.60;;;7.97;;
795;SDS011;381;48.770;9.188;2023-05-08T11:17:13;9.93;;;9.23;;
795;SDS011;381;48.770;9.188;2023-05-08T11:22:24;9.60;;;8.83;;
795;SDS011;381;48.770;9.188;2023-05-08T11:27:37;9.00;;;8.30;;
795;SDS011;381;48.770;9.188;2023-05-08T11:38:18;10.27;;;9.47;;
795;SDS011;381;48.770;9.188;2023-05-08T11:43:30;10.43;;;9.63;;
795;SDS011;381;48.770;9.188;2023-05-08T11:48:59;10.90;;;10.10;;
795;SDS011;381;48.770;9.188;2023-05-08T11:54:02;12.40;;;11.40;;
795;SDS011;381;48.770;9.188;2023-05-08T11:59:06;13.43;;;12.13;;
795;SDS011;381;48.770;9.188;2023-05-08T12:04:09;15.23;;;13.67;;
795;SDS011;381;48.770;9.188;2023-05-08T12:09:13;14.57;;;13.17;;
795;SDS011;381;48.770;9.188;2023-05-08T12:14:18;16.67;;;15.17;;
795;SDS011;381;48.770;9.188;2023-05-08T12:19:23;15.33;;;13.87;;
795;SDS011;381;48.770;9.188;2023-05-08T12:24:25;15.90;;;14.60;;
795;SDS011;381;48.770;9.188;2023-05-08T12:29:28;15.87;;;14.47;;
795;SDS011;381;48.770;9.188;2023-05-08T12:34:30;16.00;;;14.60;;
795;SDS011;381;48.770;9.188;2023-05-08T12:39:33;14.60;;;13.30;;
795;SDS011;381;48.770;9.188;2023-05-08T12:44:38;13.73;;;12.53;;
795;SDS011;381;48.770;9.188;2023-05-08T12:49:40;13.07;;;11.97;;
795;SDS011;381;48.770;9.188;2023-05-08T12:54:45;12.73;;;11.73;;
795;SDS011;381;48.770;9.188;2023-05-08T12:59:49;12.90;;;11.90;;
795;SDS011;381;48.770;9.188;2023-05-08T13:05:03;12.40;;;11.40;;
795;SDS011;381;48.770;9.188;2023-05-08T13:10:05;13.00;;;11.93;;
795;SDS011;381;48.770;9.188;2023-05-08T13:15:10;13.13;;;12.13;;
795;SDS011;381;48.770;9.188;2023-05-08T13:20:12;13.47;;;12.37;;
795;SDS011;381;48.770;9.188;2023-05-08T13:25:14;12.10;;;11.10;;
795;SDS011;381;48.770;9.188;2023-05-08T13:30:17;11.90;;;10.90;;
795;SDS011;381;48.770;9.188;2023-05-08T13:35:21;11.77;;;10.87;;
795;SDS011;381;48.770;9.188;2023-05-08T13:40:24;13.80;;;12.60;;
795;SDS011;381;48.770;9.188;2023-05-08T13:45:27;14.17;;;12.87;;
795;SDS011;381;48.770;9.188;2023-05-08T13:50:30;12.60;;;11.67;;
795;SDS011;381;48.770;9.188;2023-05-08T13:55:32;12.67;;;11.57;;
795;SDS011;381;48.770;9.188;2023-05-08T14:00:36;14.07;;;12.77;;
795;SDS011;381;48.770;9.188;2023-05-08T14:05:38;14.60;;;13.10;;
795;SDS011;381;48.770;9.188;2023-05-08T14:10:40;13.50;;;12.40;;
795;SDS011;381;48.770;9.188;2023-05-08T14:15:43;15.27;;;14.07;;
795;SDS011;381;48.770;9.188;2023-05-08T14:20:45;13.90;;;12.80;;
795;SDS011;381;48.770;9.188;2023-05-08T14:25:47;14.77;;;13.53;;
795;SDS011;381;48.770;9.188;2023-05-08T14:30:51;17.10;;;15.53;;
795;SDS011;381;48.770;9.188;2023-05-08T14:35:53;15.63;;;14.33;;
795;SDS011;381;48.770;9.188;2023-05-08T14:40:55;16.53;;;15.13;;
795;SDS011;381;48.770;9.188;2023-05-08T14:45:59;18.63;;;17.10;;
795;SDS011;381;48.770;9.188;2023-05-08T14:51:01;20.23;;;18.53;;
795;SDS011;381;48.770;9.188;2023-05-08T14:56:03;22.30;;;20.43;;
795;SDS011;381;48.770;9.188;2023-05-08T15:01:07;22.93;;;21.07;;
795;SDS011;381;48.770;9.188;2023-05-08T15:06:09;24.37;;;22.53;;
795;SDS011;381;48.770;9.188;2023-05-08T15:11:11;27.50;;;25.10;;
795;SDS011;381;48.770;9.188;2023-05-08T15:16:14;28.77;;;26.17;;
795;SDS011;381;48.770;9.188;2023-05-08T15:21:17;31.17;;;28.57;;
795;SDS011;381;48.770;9.188;2023-05-08T15:26:21;32.50;;;29.70;;
795;SDS011;381;48.770;9.188;2023-05-08T15:31:24;32.17;;;29.40;;
795;SDS011;381;48.770;9.188;2023-05-08T15:36:26;31.00;;;28.30;;
795;SDS011;381;48.770;9.188;2023-05-08T15:41:30;28.60;;;26.27;;
795;SDS011;381;48.770;9.188;2023-05-08T15:46:34;28.53;;;26.07;;
795;SDS011;381;48.770;9.188;2023-05-08T15:51:37;30.20;;;27.30;;
795;SDS011;381;48.770;9.188;2023-05-08T15:56:39;29.43;;;26.90;;
795;SDS011;381;48.770;9.188;2023-05-08T16:01:42;29.87;;;27.30;;
795;SDS011;381;48.770;9.188;2023-05-08T16:06:46;28.53;;;26.13;;
795;SDS011;381;48.770;9.188;2023-05-08T16:11:48;24.73;;;22.57;;
795;SDS011;381;48.770;9.188;2023-05-08T16:16:51;28.77;;;26.33;;
795;SDS011;381;48.770;9.188;2023-05-08T16:21:53;26.80;;;24.50;;
795;SDS011;381;48.770;9.188;2023-05-08T16:26:55;26.40;;;24.00;;
795;SDS011;381;48.770;9.188;2023-05-08T16:31:59;26.50;;;24.10;;
795;SDS011;381;48.770;9.188;2023-05-08T16:37:01;28.47;;;26.00;;
795;SDS011;381;48.770;9.188;2023-05-08T16:42:03;26.97;;;24.67;;
795;SDS011;381;48.770;9.188;2023-05-08T16:47:08;30.53;;;27.70;;
795;SDS011;381;48.770;9.188;2023-05-08T16:52:10;28.63;;;26.07;;
795;SDS011;381;48.770;9.188;2023-05-08T16:57:12;29.07;;;26.47;;
795;SDS011;381;48.770;9.188;2023-05-08T17:02:16;27.97;;;25.57;;
795;SDS011;381;48.770;9.188;2023-05-08T17:07:18;28.00;;;25.50;;
795;SDS011;381;48.770;9.188;2023-05-08T17:12:20;30.57;;;27.83;;
795;SDS011;381;48.770;9.188;2023-05-08T17:17:23;29.17;;;26.47;;
795;SDS011;381;48.770;9.188;2023-05-08T17:22:25;30.83;;;27.93;;
795;SDS011;381;48.770;9.188;2023-05-08T17:27:27;28.60;;;26.27;;
795;SDS011;381;48.770;9.188;2023-05-08T17:32:31;25.30;;;22.97;;
795;SDS011;381;48.770;9.188;2023-05-08T17:37:33;27.13;;;24.80;;
795;SDS011;381;48.770;9.188;2023-05-08T17:42:35;24.23;;;22.27;;
795;SDS011;381;48.770;9.188;2023-05-08T17:47:38;20.73;;;18.93;;
795;SDS011;381;48.770;9.188;2023-05-08T17:52:40;22.90;;;21.20;;
795;SDS011;381;48.770;9.188;2023-05-08T17:57:43;21.77;;;19.97;;
795;SDS011;381;48.770;9.188;2023-05-08T18:02:46;22.77;;;20.87;;
795;SDS011;381;48.770;9.188;2023-05-08T18:07:48;24.27;;;22.17;;
795;SDS011;381;48.770;9.188;2023-05-08T18:12:51;20.00;;;18.10;;
795;SDS011;381;48.770;9.188;2023-05-08T18:17:54;21.10;;;19.40;;
795;SDS011;381;48.770;9.188;2023-05-08T18:22:57;20.40;;;18.70;;
795;SDS011;381;48.770;9.188;2023-05-08T18:27:59;22.23;;;20.23;;
795;SDS011;381;48.770;9.188;2023-05-08T18:33:03;20.27;;;18.57;;
795;SDS011;381;48.770;9.188;2023-05-08T18:38:05;19.80;;;18.20;;
795;SDS011;381;48.770;9.188;2023-05-08T18:43:07;19.70;;;18.10;;
795;SDS011;381;48.770;9.188;2023-05-08T18:48:10;20.40;;;18.80;;
795;SDS011;381;48.770;9.188;2023-05-08T18:53:12;20.77;;;18.77;;
795;SDS011;381;48.770;9.188;2023-05-08T18:58:16;20.77;;;18.87;;
795;SDS011;381;48.770;9.188;2023-05-08T19:03:19;19.63;;;18.10;;
795;SDS011;381;48.770;9.188;2023-05-08T19:08:22;20.37;;;17.67;;
795;SDS011;381;48.770;9.188;2023-05-08T19:13:24;19.80;;;18.00;;
795;SDS011;381;48.770;9.188;2023-05-08T19:18:28;21.30;;;19.40;;
795;SDS011;381;48.770;9.188;2023-05-08T19:23:31;19.30;;;17.30;;
795;SDS011;381;48.770;9.188;2023-05-08T19:28:33;20.30;;;18.50;;
795;SDS011;381;48.770;9.188;2023-05-08T19:33:36;19.50;;;17.80;;
795;SDS011;381;48.770;9.188;2023-05-08T19:38:38;20.20;;;18.27;;
795;SDS011;381;48.770;9.188;2023-05-08T19:43:41;22.80;;;20.70;;
795;SDS011;381;48.770;9.188;2023-05-08T19:48:44;24.00;;;21.80;;
795;SDS011;381;48.770;9.188;2023-05-08T19:53:46;20.80;;;19.10;;
795;SDS011;381;48.770;9.188;2023-05-08T19:58:48;20.63;;;18.83;;
795;SDS011;381;48.770;9.188;2023-05-08T20:03:52;19.20;;;17.40;;
795;SDS011;381;48.770;9.188;2023-05-08T20:08:54;21.40;;;19.30;;
795;SDS011;381;48.770;9.188;2023-05-08T20:13:56;20.47;;;18.77;;
795;SDS011;381;48.770;9.188;2023-05-08T20:19:00;20.80;;;18.90;;
795;SDS011;381;48.770;9.188;2023-05-08T20:24:02;20.23;;;18.43;;
795;SDS011;381;48.770;9.188;2023-05-08T20:29:04;18.43;;;16.83;;
795;SDS011;381;48.770;9.188;2023-05-08T20:34:08;21.07;;;18.97;;
795;SDS011;381;48.770;9.188;2023-05-08T20:39:10;19.07;;;17.47;;
795;SDS011;381;48.770;9.188;2023-05-08T20:44:12;20.60;;;18.80;;
795;SDS011;381;48.770;9.188;2023-05-08T20:49:17;19.60;;;18.00;;
795;SDS011;381;48.770;9.188;2023-05-08T20:54:23;19.73;;;17.83;;
795;SDS011;381;48.770;9.188;2023-05-08T20:59:25;19.83;;;17.73;;
795;SDS011;381;48.770;9.188;2023-05-08T21:04:28;19.40;;;17.70;;
795;SDS011;381;48.770;9.188;2023-05-08T21:09:30;19.97;;;17.97;;
795;SDS011;381;48.770;9.188;2023-05-08T21:14:32;19.43;;;17.57;;
795;SDS011;381;48.770;9.188;2023-05-08T21:19:37;19.07;;;17.43;;
795;SDS011;381;48.770;9.188;2023-05-08T21:24:41;20.93;;;18.93;;
795;SDS011;381;48.770;9.188;2023-05-08T21:29:43;19.60;;;17.80;;
795;SDS011;381;48.770;9.188;2023-05-08T21:34:47;20.13;;;18.13;;
795;SDS011;381;48.770;9.188;2023-05-08T21:39:49;20.37;;;18.57;;
795;SDS011;381;48.770;9.188;2023-05-08T21:44:52;20.50;;;18.50;;
795;SDS011;381;48.770;9.188;2023-05-08T21:49:56;19.83;;;18.00;;
795;SDS011;381;48.770;9.188;2023-05-08T21:54:58;20.13;;;18.33;;
795;SDS011;381;48.770;9.188;2023-05-08T22:00:00;20.87;;;19.00;;
795;SDS011;381;48.770;9.188;2023-05-08T22:05:05;19.83;;;17.93;;
795;SDS011;381;48.770;9.188;2023-05-08T22:10:08;22.23;;;20.30;;
795;SDS011;381;48.770;9.188;2023-05-08T22:15:13;22.80;;;20.70;;
795;SDS011;381;48.770;9.188;2023-05-08T22:20:16;21.17;;;19.10;;
795;SDS011;381;48.770;9.188;2023-05-08T22:25:18;20.67;;;18.70;;
795;SDS011;381;48.770;9.188;2023-05-08T22:30:21;19.73;;;17.90;;
795;SDS011;381;48.770;9.188;2023-05-08T22:35:25;20.63;;;18.53;;
795;SDS011;381;48.770;9.188;2023-05-08T22:40:28;20.80;;;18.80;;
795;SDS011;381;48.770;9.188;2023-05-08T22:45:30;19.87;;;18.13;;
795;SDS011;381;48.770;9.188;2023-05-08T22:50:35;22.27;;;20.07;;
795;SDS011;381;48.770;9.188;2023-05-08T22:55:37;20.17;;;18.27;;
795;SDS011;381;48.770;9.188;2023-05-08T23:00:39;20.27;;;18.17;;
795;SDS011;381;48.770;9.188;2023-05-08T23:05:42;22.70;;;20.60;;
795;SDS011;381;48.770;9.188;2023-05-08T23:10:45;22.83;;;20.73;;
795;SDS011;381;48.770;9.188;2023-05-08T23:15:47;21.33;;;19.43;;
795;SDS011;381;48.770;9.188;2023-05-08T23:20:50;22.90;;;20.90;;
795;SDS011;381;48.770;9.188;2023-05-08T23:25:52;23.03;;;20.70;;
795;SDS011;381;48.770;9.188;2023-05-08T23:30:54;24.13;;;21.93;;
795;SDS011;381;48.770;9.188;2023-05-08T23:35:58;23.63;;;21.13;;
795;SDS011;381;48.770;9.188;2023-05-08T23:41:03;23.00;;;20.70;;
795;SDS011;381;48.770;9.188;2023-05-08T23:46:05;23.10;;;20.87;;
795;SDS011;381;48.770;9.188;2023-05-08T23:51:09;23.13;;;20.97;;
795;SDS011;381;48.770;9.188;2023-05-08T23:56:11;23.43;;;21.10;;
